Terminal Aerodrome Forecast
Issued by NWS

Home | Current Version | Previous Version | Text Only | Print | Product List | Glossary On
Versions: 1 2 3 4 5 6 7 8 9 10 11 12 13 14 15 16 17 18
000
FTUS46 KMTR 172300
TAFSTS
TAF
KSTS 172332Z 1800/1824 18010KT P6SM FEW050 SCT200
     FM180500 15005KT P6SM VCSH BKN015 OVC050
     FM180900 15006KT P6SM -RA OVC015
     FM181800 21009KT P6SM -SHRA OVC020=

USA.gov is the U.S. government's official web portal to all federal, state and local government web resources and services.